Nautilus — ISPC — position and weather

sailwx.info

Track history (hours):
 
Tides and Currents Weather Stations Pressure Air Temp Water Temp Dewpoint Dewpoint Depression Visibility Wind Speed Wind Dir Waves Ship Positions

Nautilus

Last reported at 2017-Sep-29 22:14 UTC. Time now 2017-Oct-22 12:18 UTC.
Position N 42°49' E 010°12'.
Warning: this ship's position is 22 days out of date.

Length 25 m.

Type: Ship. MMSI: 247205700.

Date/timePositionNaut miles runAvg speedWind from/ knotsBaromVisibWave heightAir tempDewpointWater temp
2017-Sep-29 22:14N 42°49' E 010°12'0 0.0
2017-Sep-29 22:00N 42°49' E 010°12'0 0.0
2017-Sep-29 19:58N 42°49' E 010°12'0 0.0
2017-Sep-29 19:29N 42°49' E 010°12'0 0.0
2017-Sep-29 19:01N 42°49' E 010°12'0 0.0
2017-Sep-29 18:30N 42°49' E 010°12'0 0.0
2017-Sep-29 17:59N 42°49' E 010°12'0 0.0
2017-Sep-29 17:30N 42°49' E 010°12'0 0.0
2017-Sep-29 16:57N 42°49' E 010°12'0 0.0
2017-Sep-29 16:30N 42°49' E 010°12'0 0.3
2017-Sep-29 15:58N 42°48' E 010°12'3 6.3
2017-Sep-29 15:31N 42°49' E 010°08'4 7.0
2017-Sep-29 15:00N 42°45' E 010°06'1 1.3
2017-Sep-29 14:29N 42°46' E 010°06'3 5.8
2017-Sep-29 14:00N 42°49' E 010°08'3 6.2
2017-Sep-29 13:30N 42°48' E 010°12'0 0.0
2017-Sep-29 13:01N 42°48' E 010°12'0 0.4
2017-Sep-29 12:30N 42°49' E 010°12'0 0.0
2017-Sep-29 12:00N 42°49' E 010°12'0 0.0
2017-Sep-29 11:29N 42°49' E 010°12'0 0.0
2017-Sep-29 10:58N 42°49' E 010°12'0 0.0
2017-Sep-29 10:24N 42°49' E 010°12'0 0.0
2017-Sep-29 10:00N 42°49' E 010°12'0 0.0
2017-Sep-29 09:30N 42°49' E 010°12'0 0.0
2017-Sep-29 05:14N 42°49' E 010°12'0 0.0
2017-Sep-29 05:00N 42°49' E 010°12'0 0.0
2017-Sep-29 04:30N 42°49' E 010°12'0 0.0
2017-Sep-29 04:00N 42°49' E 010°12'0 0.0
2017-Sep-29 03:31N 42°49' E 010°12'0 0.0
2017-Sep-29 02:59N 42°49' E 010°12'0 0.0
2017-Sep-29 02:30N 42°49' E 010°12'0 0.0
2017-Sep-29 02:00N 42°49' E 010°12'0 0.0
2017-Sep-29 01:30N 42°49' E 010°12'0 0.0
2017-Sep-29 01:00N 42°49' E 010°12'0 0.0
2017-Sep-29 00:30N 42°49' E 010°12'0 0.0
2017-Sep-29 00:00N 42°49' E 010°12'0 0.0
2017-Sep-28 23:31N 42°49' E 010°12'0 0.0
2017-Sep-28 23:00N 42°49' E 010°12'0 0.0
2017-Sep-28 22:30N 42°49' E 010°12'0 0.0
2017-Sep-28 22:00N 42°49' E 010°12'0 0.0
2017-Sep-28 21:30N 42°49' E 010°12'0 0.0
2017-Sep-28 20:58N 42°49' E 010°12'0 0.0
2017-Sep-28 20:30N 42°49' E 010°12'0 0.0
2017-Sep-28 20:01N 42°49' E 010°12'0 0.0
2017-Sep-28 19:27N 42°49' E 010°12'0 0.0
2017-Sep-28 18:58N 42°49' E 010°12'0 0.0
2017-Sep-28 18:30N 42°49' E 010°12'0 0.0
2017-Sep-28 17:57N 42°49' E 010°12'0 0.0
2017-Sep-28 17:30N 42°49' E 010°12'0 0.0
2017-Sep-28 17:00N 42°49' E 010°12'0 0.0
2017-Sep-28 16:30N 42°49' E 010°12'0 0.4
2017-Sep-28 16:00N 42°48' E 010°12'3 6.7
2017-Sep-28 15:29N 42°48' E 010°07'2 2.3
2017-Sep-28 14:26N 42°46' E 010°06'3 6.3
2017-Sep-28 14:00N 42°49' E 010°08'3 5.4
2017-Sep-28 13:27N 42°48' E 010°12'0 0.0
2017-Sep-28 13:00N 42°48' E 010°12'0 0.2
2017-Sep-28 11:56N 42°49' E 010°12'0 0.0
2017-Sep-28 11:27N 42°49' E 010°12'0 0.0
2017-Sep-28 10:57N 42°49' E 010°12'0 0.0
2017-Sep-28 10:27N 42°49' E 010°12'0 0.0
2017-Sep-28 08:21N 42°49' E 010°12'0 0.0
2017-Sep-28 08:00N 42°49' E 010°12'0 0.0
2017-Sep-28 07:05N 42°49' E 010°12'0 0.0
2017-Sep-28 06:59N 42°49' E 010°12'0 0.0
2017-Sep-28 04:47N 42°49' E 010°12'0 0.0
2017-Sep-28 04:29N 42°49' E 010°12'0 0.0
2017-Sep-28 04:01N 42°49' E 010°12'0 0.0
2017-Sep-28 03:28N 42°49' E 010°12'0 0.0
2017-Sep-28 03:00N 42°49' E 010°12'0 0.0
2017-Sep-28 02:31N 42°49' E 010°12'0 0.0
2017-Sep-28 01:55N 42°49' E 010°12'0 0.0
2017-Sep-27 23:56N 42°49' E 010°12'0 0.0
2017-Sep-27 23:30N 42°49' E 010°12'0 0.0
2017-Sep-27 22:32N 42°49' E 010°12'0 0.0
2017-Sep-27 22:22N 42°49' E 010°12'0 0.0
2017-Sep-27 22:00N 42°49' E 010°12'0 0.0
2017-Sep-27 21:30N 42°49' E 010°12'0 0.0
2017-Sep-27 21:01N 42°49' E 010°12'0 0.0
2017-Sep-27 20:30N 42°49' E 010°12'0 0.0
2017-Sep-27 20:00N 42°49' E 010°12'0 0.0
2017-Sep-27 19:31N 42°49' E 010°12'0 0.0
2017-Sep-27 18:59N 42°49' E 010°12'0 0.0
2017-Sep-27 16:12N 42°49' E 010°12'0 0.7
2017-Sep-27 15:58N 42°48' E 010°12'2 1.2
2017-Sep-27 13:56N 42°49' E 010°09'2 5.6
2017-Sep-27 13:31N 42°48' E 010°12'0 0.0
2017-Sep-27 13:00N 42°48' E 010°12'0 0.0
2017-Sep-27 12:31N 42°48' E 010°12'0 0.0
2017-Sep-27 12:01N 42°48' E 010°12'0 0.0
2017-Sep-27 11:30N 42°48' E 010°12'0 0.0
2017-Sep-27 11:00N 42°48' E 010°12'0 0.0
2017-Sep-27 10:29N 42°48' E 010°12'0 0.0
2017-Sep-27 10:00N 42°48' E 010°12'0 0.1
2017-Sep-27 07:36N 42°49' E 010°12'0 1.1
2017-Sep-27 07:26N 42°49' E 010°12'0 0.0
2017-Sep-27 07:00N 42°49' E 010°12'0 0.0
2017-Sep-27 06:29N 42°49' E 010°12'0 0.0
2017-Sep-27 06:00N 42°49' E 010°12'0 0.0
2017-Sep-27 05:30N 42°49' E 010°12'0 0.0
2017-Sep-27 05:00N 42°49' E 010°12'0 0.0
2017-Sep-27 04:31N 42°49' E 010°12'0 0.0
2017-Sep-27 03:59N 42°49' E 010°12'0 0.0
2017-Sep-27 03:31N 42°49' E 010°12'0 0.0
2017-Sep-27 03:01N 42°49' E 010°12'0 0.0
2017-Sep-27 02:30N 42°49' E 010°12'0 0.0
2017-Sep-27 02:01N 42°49' E 010°12'0 0.0
2017-Sep-27 01:30N 42°49' E 010°12'0 0.0
2017-Sep-27 01:01N 42°49' E 010°12'0 0.0
2017-Sep-27 00:31N 42°49' E 010°12'0 0.0
2017-Sep-27 00:00N 42°49' E 010°12'0 0.0
2017-Sep-26 23:31N 42°49' E 010°12'0 0.0
2017-Sep-26 23:00N 42°49' E 010°12'0 0.0
2017-Sep-26 22:31N 42°49' E 010°12'0 0.0
2017-Sep-26 22:00N 42°49' E 010°12'0 0.0
2017-Sep-26 21:28N 42°49' E 010°12'0 0.0
2017-Sep-26 21:01N 42°49' E 010°12'0 0.0
2017-Sep-26 20:27N 42°49' E 010°12'0 0.0
2017-Sep-26 20:00N 42°49' E 010°12'0 0.0
2017-Sep-26 19:30N 42°49' E 010°12'0 0.0
2017-Sep-26 18:48N 42°49' E 010°12'0 0.0
2017-Sep-26 17:32N 42°49' E 010°12'0 0.0
2017-Sep-26 17:28N 42°49' E 010°12'0 0.0
2017-Sep-26 16:12N 42°49' E 010°12'0 0.8
2017-Sep-26 16:01N 42°48' E 010°12'1 0.7
2017-Sep-26 13:48N 42°49' E 010°10'1 4.8
2017-Sep-26 13:30N 42°48' E 010°12'0 0.0
2017-Sep-26 12:56N 42°48' E 010°12'0 0.3
2017-Sep-26 12:23N 42°49' E 010°12'0 0.0
2017-Sep-26 11:59N 42°49' E 010°12'0 0.0
2017-Sep-26 11:28N 42°49' E 010°12'0 0.0
2017-Sep-26 10:58N 42°49' E 010°12'0 0.0
2017-Sep-26 10:22N 42°49' E 010°12'0 0.0
2017-Sep-26 09:56N 42°49' E 010°12'0 0.0
2017-Sep-26 09:15N 42°49' E 010°12'0 0.0
2017-Sep-26 08:53N 42°49' E 010°12'0 0.0
2017-Sep-26 08:29N 42°49' E 010°12'0 0.0
2017-Sep-26 07:57N 42°49' E 010°12'0 0.0
2017-Sep-26 07:28N 42°49' E 010°12'0 0.0
2017-Sep-26 07:01N 42°49' E 010°12'0 0.0
2017-Sep-26 06:30N 42°49' E 010°12'0 0.0
2017-Sep-26 06:00N 42°49' E 010°12'0 0.0
2017-Sep-26 05:28N 42°49' E 010°12'0 0.0
2017-Sep-26 05:00N 42°49' E 010°12'0 0.0
2017-Sep-26 04:30N 42°49' E 010°12'0 0.0
2017-Sep-26 04:00N 42°49' E 010°12'0 0.0
2017-Sep-26 03:31N 42°49' E 010°12'0 0.0
2017-Sep-26 03:00N 42°49' E 010°12'0 0.0
2017-Sep-26 02:31N 42°49' E 010°12'0 0.0
2017-Sep-26 02:00N 42°49' E 010°12'0 0.0
2017-Sep-26 01:30N 42°49' E 010°12'0 0.0
2017-Sep-26 01:00N 42°49' E 010°12'0 0.0
2017-Sep-26 00:31N 42°49' E 010°12'0 0.0
2017-Sep-26 00:00N 42°49' E 010°12'0 0.0
2017-Sep-25 23:30N 42°49' E 010°12'0 0.0
2017-Sep-25 22:57N 42°49' E 010°12'0 0.0
2017-Sep-25 22:30N 42°49' E 010°12'0 0.0
2017-Sep-25 22:01N 42°49' E 010°12'0 0.0
2017-Sep-25 21:30N 42°49' E 010°12'0 0.0
2017-Sep-25 20:57N 42°49' E 010°12'0 0.0
2017-Sep-25 20:31N 42°49' E 010°12'0 0.0
2017-Sep-25 20:01N 42°49' E 010°12'0 0.0
2017-Sep-25 19:30N 42°49' E 010°12'0 0.0
2017-Sep-25 19:00N 42°49' E 010°12'0 0.0
2017-Sep-25 18:31N 42°49' E 010°12'0 0.0
2017-Sep-25 18:00N 42°49' E 010°12'0 0.0
2017-Sep-25 17:31N 42°49' E 010°12'0 0.0
2017-Sep-25 17:00N 42°49' E 010°12'0 0.0
2017-Sep-25 16:31N 42°49' E 010°12'0 0.3
2017-Sep-25 15:59N 42°48' E 010°12'3 6.8
2017-Sep-25 15:30N 42°49' E 010°08'3 2.4
2017-Sep-25 14:26N 42°46' E 010°06'3 6.2
2017-Sep-25 14:00N 42°49' E 010°08'3 6.1
2017-Sep-25 13:30N 42°48' E 010°12'0 0.0
2017-Sep-25 13:01N 42°48' E 010°12'0 0.3
2017-Sep-25 12:30N 42°49' E 010°12'0 0.0
2017-Sep-25 12:00N 42°49' E 010°12'0 0.0
2017-Sep-25 11:30N 42°49' E 010°12'0 0.0
2017-Sep-25 11:01N 42°49' E 010°12'0 0.0
2017-Sep-25 04:25N 42°49' E 010°12'0 0.0
2017-Sep-25 04:00N 42°49' E 010°12'0 0.0
2017-Sep-25 01:34N 42°49' E 010°12'0 0.0
2017-Sep-25 01:28N 42°49' E 010°12'0 0.0
2017-Sep-25 00:47N 42°49' E 010°12'0 0.0
2017-Sep-24 23:06N 42°49' E 010°12'0 0.0
2017-Sep-24 21:04N 42°49' E 010°12'0 0.0
2017-Sep-24 19:38N 42°49' E 010°12'0 0.0
2017-Sep-24 19:30N 42°49' E 010°12'0 0.0
2017-Sep-24 19:00N 42°49' E 010°12'0 0.0
2017-Sep-24 18:14N 42°49' E 010°12'0 0.0
2017-Sep-24 18:01N 42°49' E 010°12'0 0.0
2017-Sep-24 17:29N 42°49' E 010°12'0 0.0
2017-Sep-24 16:51N 42°49' E 010°12'0 0.0
2017-Sep-24 16:30N 42°49' E 010°12'0 0.4
2017-Sep-24 16:01N 42°48' E 010°12'3 1.6
2017-Sep-24 14:03N 42°49' E 010°08'1 8.5
2017-Sep-24 13:59N 42°49' E 010°09'2 5.3
2017-Sep-24 13:30N 42°48' E 010°12'0 0.0
2017-Sep-24 12:56N 42°48' E 010°12'0 0.0
2017-Sep-24 12:27N 42°48' E 010°12'0 0.0
2017-Sep-24 08:47N 42°49' E 010°12'0 0.0
2017-Sep-24 08:14N 42°49' E 010°12'0 0.0
2017-Sep-24 07:59N 42°49' E 010°12'0 0.0
2017-Sep-24 07:28N 42°49' E 010°12'0 0.0
2017-Sep-24 06:57N 42°49' E 010°12'0 0.0
2017-Sep-24 06:29N 42°49' E 010°12'0 0.0
2017-Sep-24 05:59N 42°49' E 010°12'0 0.0
2017-Sep-24 05:11N 42°49' E 010°12'0 0.0
2017-Sep-24 04:54N 42°49' E 010°12'0 0.0
2017-Sep-24 04:29N 42°49' E 010°12'0 0.0
2017-Sep-24 03:24N 42°49' E 010°12'0 0.0
2017-Sep-24 02:00N 42°49' E 010°12'0 0.0
2017-Sep-24 01:28N 42°49' E 010°12'0 0.0
2017-Sep-24 00:57N 42°49' E 010°12'0 0.0
2017-Sep-24 00:30N 42°49' E 010°12'0 0.0
2017-Sep-23 23:59N 42°49' E 010°12'0 0.0
2017-Sep-23 23:30N 42°49' E 010°12'0 0.0
2017-Sep-23 22:59N 42°49' E 010°12'0 0.0
2017-Sep-23 22:30N 42°49' E 010°12'0 0.0
2017-Sep-23 22:00N 42°49' E 010°12'0 0.0
2017-Sep-23 21:29N 42°49' E 010°12'0 0.0
2017-Sep-23 21:00N 42°49' E 010°12'0 0.0
2017-Sep-23 20:30N 42°49' E 010°12'0 0.0
2017-Sep-23 20:00N 42°49' E 010°12'0 0.0
2017-Sep-22 02:00N 42°49' E 010°12'0 0.0
2017-Sep-22 01:30N 42°49' E 010°12'0 0.0
2017-Sep-22 00:53N 42°49' E 010°12'0 0.0
2017-Sep-22 00:20N 42°49' E 010°12'0 0.0
2017-Sep-21 23:59N 42°49' E 010°12'0 0.0
2017-Sep-21 23:12N 42°49' E 010°12'0 0.0
2017-Sep-21 22:58N 42°49' E 010°12'0 0.0
2017-Sep-21 22:29N 42°49' E 010°12'0 0.0
2017-Sep-21 21:55N 42°49' E 010°12'0 0.0
2017-Sep-21 21:24N 42°49' E 010°12'0 0.0
2017-Sep-21 20:19N 42°49' E 010°12'0 0.0
2017-Sep-21 19:54N 42°49' E 010°12'0 0.0
2017-Sep-21 19:29N 42°49' E 010°12'0 0.0
2017-Sep-21 18:48N 42°49' E 010°12'0 0.0
2017-Sep-21 18:30N 42°49' E 010°12'0 0.0
2017-Sep-21 17:42N 42°49' E 010°12'0 0.0
2017-Sep-21 17:29N 42°49' E 010°12'0 0.0
2017-Sep-21 17:00N 42°49' E 010°12'0 0.0
2017-Sep-21 16:28N 42°49' E 010°12'0 0.3
2017-Sep-21 16:00N 42°49' E 010°12'0 0.1
2017-Sep-21 12:50N 42°48' E 010°12'0 0.0
2017-Sep-21 09:27N 42°49' E 010°12'0 0.0
2017-Sep-21 08:44N 42°49' E 010°12'0 0.0
2017-Sep-21 08:20N 42°49' E 010°12'0 0.0
2017-Sep-21 07:57N 42°49' E 010°12'0 0.0
2017-Sep-21 07:30N 42°49' E 010°12'0 0.0
2017-Sep-21 06:06N 42°49' E 010°12'0 0.0
2017-Sep-21 05:39N 42°49' E 010°12'0 0.0
2017-Sep-21 05:26N 42°49' E 010°12'0 0.0
2017-Sep-21 04:58N 42°49' E 010°12'0 0.0
2017-Sep-21 04:27N 42°49' E 010°12'0 0.0
2017-Sep-21 04:01N 42°49' E 010°12'0 0.0
2017-Sep-21 03:30N 42°49' E 010°12'0 0.0
2017-Sep-21 02:50N 42°49' E 010°12'0 0.0
2017-Sep-21 02:29N 42°49' E 010°12'0 0.0
2017-Sep-21 01:22N 42°49' E 010°12'0 0.0
2017-Sep-21 00:59N 42°49' E 010°12'0 0.0
2017-Sep-21 00:29N 42°49' E 010°12'0 0.0
2017-Sep-20 22:20N 42°49' E 010°12'0 0.0
2017-Sep-20 22:00N 42°49' E 010°12'0 0.0
2017-Sep-20 21:31N 42°49' E 010°12'0 0.0
2017-Sep-20 20:24N 42°49' E 010°12'0 0.0
2017-Sep-20 17:37N 42°49' E 010°12'0 0.0
2017-Sep-20 17:30N 42°49' E 010°12'0 0.0
2017-Sep-20 16:58N 42°49' E 010°12'0 0.0
2017-Sep-20 16:31N 42°49' E 010°12'1 2.3
2017-Sep-20 15:53N 42°49' E 010°10'1 0.6
2017-Sep-20 13:59N 42°49' E 010°08'3 5.5
2017-Sep-20 13:30N 42°48' E 010°12'0 0.0
2017-Sep-20 13:00N 42°48' E 010°12'  
Track history (hours):
 
Tides and Currents Weather Stations Pressure Air Temp Water Temp Dewpoint Dewpoint Depression Visibility Wind Speed Wind Dir Waves Ship Positions

Nautilus

Last reported at 2017-Sep-29 22:14 UTC. Time now 2017-Oct-22 12:18 UTC.
Position N 42°49' E 010°12'.
Warning: this ship's position is 22 days out of date.

Length 25 m.

Type: Ship. MMSI: 247205700.

Date/timePositionNaut miles runAvg speedWind from/ knotsBaromVisibWave heightAir tempDewpointWater temp
2017-Sep-29 22:14N 42°49' E 010°12'0 0.0
2017-Sep-29 22:00N 42°49' E 010°12'0 0.0
2017-Sep-29 19:58N 42°49' E 010°12'0 0.0
2017-Sep-29 19:29N 42°49' E 010°12'0 0.0
2017-Sep-29 19:01N 42°49' E 010°12'0 0.0
2017-Sep-29 18:30N 42°49' E 010°12'0 0.0
2017-Sep-29 17:59N 42°49' E 010°12'0 0.0
2017-Sep-29 17:30N 42°49' E 010°12'0 0.0
2017-Sep-29 16:57N 42°49' E 010°12'0 0.0
2017-Sep-29 16:30N 42°49' E 010°12'0 0.3
2017-Sep-29 15:58N 42°48' E 010°12'3 6.3
2017-Sep-29 15:31N 42°49' E 010°08'4 7.0
2017-Sep-29 15:00N 42°45' E 010°06'1 1.3
2017-Sep-29 14:29N 42°46' E 010°06'3 5.8
2017-Sep-29 14:00N 42°49' E 010°08'3 6.2
2017-Sep-29 13:30N 42°48' E 010°12'0 0.0
2017-Sep-29 13:01N 42°48' E 010°12'0 0.4
2017-Sep-29 12:30N 42°49' E 010°12'0 0.0
2017-Sep-29 12:00N 42°49' E 010°12'0 0.0
2017-Sep-29 11:29N 42°49' E 010°12'0 0.0
2017-Sep-29 10:58N 42°49' E 010°12'0 0.0
2017-Sep-29 10:24N 42°49' E 010°12'0 0.0
2017-Sep-29 10:00N 42°49' E 010°12'0 0.0
2017-Sep-29 09:30N 42°49' E 010°12'0 0.0
2017-Sep-29 05:14N 42°49' E 010°12'0 0.0
2017-Sep-29 05:00N 42°49' E 010°12'0 0.0
2017-Sep-29 04:30N 42°49' E 010°12'0 0.0
2017-Sep-29 04:00N 42°49' E 010°12'0 0.0
2017-Sep-29 03:31N 42°49' E 010°12'0 0.0
2017-Sep-29 02:59N 42°49' E 010°12'0 0.0
2017-Sep-29 02:30N 42°49' E 010°12'0 0.0
2017-Sep-29 02:00N 42°49' E 010°12'0 0.0
2017-Sep-29 01:30N 42°49' E 010°12'0 0.0
2017-Sep-29 01:00N 42°49' E 010°12'0 0.0
2017-Sep-29 00:30N 42°49' E 010°12'0 0.0
2017-Sep-29 00:00N 42°49' E 010°12'0 0.0
2017-Sep-28 23:31N 42°49' E 010°12'0 0.0
2017-Sep-28 23:00N 42°49' E 010°12'0 0.0
2017-Sep-28 22:30N 42°49' E 010°12'0 0.0
2017-Sep-28 22:00N 42°49' E 010°12'0 0.0
2017-Sep-28 21:30N 42°49' E 010°12'0 0.0
2017-Sep-28 20:58N 42°49' E 010°12'0 0.0
2017-Sep-28 20:30N 42°49' E 010°12'0 0.0
2017-Sep-28 20:01N 42°49' E 010°12'0 0.0
2017-Sep-28 19:27N 42°49' E 010°12'0 0.0
2017-Sep-28 18:58N 42°49' E 010°12'0 0.0
2017-Sep-28 18:30N 42°49' E 010°12'0 0.0
2017-Sep-28 17:57N 42°49' E 010°12'0 0.0
2017-Sep-28 17:30N 42°49' E 010°12'0 0.0
2017-Sep-28 17:00N 42°49' E 010°12'0 0.0
2017-Sep-28 16:30N 42°49' E 010°12'0 0.4
2017-Sep-28 16:00N 42°48' E 010°12'3 6.7
2017-Sep-28 15:29N 42°48' E 010°07'2 2.3
2017-Sep-28 14:26N 42°46' E 010°06'3 6.3
2017-Sep-28 14:00N 42°49' E 010°08'3 5.4
2017-Sep-28 13:27N 42°48' E 010°12'0 0.0
2017-Sep-28 13:00N 42°48' E 010°12'0 0.2
2017-Sep-28 11:56N 42°49' E 010°12'0 0.0
2017-Sep-28 11:27N 42°49' E 010°12'0 0.0
2017-Sep-28 10:57N 42°49' E 010°12'0 0.0
2017-Sep-28 10:27N 42°49' E 010°12'0 0.0
2017-Sep-28 08:21N 42°49' E 010°12'0 0.0
2017-Sep-28 08:00N 42°49' E 010°12'0 0.0
2017-Sep-28 07:05N 42°49' E 010°12'0 0.0
2017-Sep-28 06:59N 42°49' E 010°12'0 0.0
2017-Sep-28 04:47N 42°49' E 010°12'0 0.0
2017-Sep-28 04:29N 42°49' E 010°12'0 0.0
2017-Sep-28 04:01N 42°49' E 010°12'0 0.0
2017-Sep-28 03:28N 42°49' E 010°12'0 0.0
2017-Sep-28 03:00N 42°49' E 010°12'0 0.0
2017-Sep-28 02:31N 42°49' E 010°12'0 0.0
2017-Sep-28 01:55N 42°49' E 010°12'0 0.0
2017-Sep-27 23:56N 42°49' E 010°12'0 0.0
2017-Sep-27 23:30N 42°49' E 010°12'0 0.0
2017-Sep-27 22:32N 42°49' E 010°12'0 0.0
2017-Sep-27 22:22N 42°49' E 010°12'0 0.0
2017-Sep-27 22:00N 42°49' E 010°12'0 0.0
2017-Sep-27 21:30N 42°49' E 010°12'0 0.0
2017-Sep-27 21:01N 42°49' E 010°12'0 0.0
2017-Sep-27 20:30N 42°49' E 010°12'0 0.0
2017-Sep-27 20:00N 42°49' E 010°12'0 0.0
2017-Sep-27 19:31N 42°49' E 010°12'0 0.0
2017-Sep-27 18:59N 42°49' E 010°12'0 0.0
2017-Sep-27 16:12N 42°49' E 010°12'0 0.7
2017-Sep-27 15:58N 42°48' E 010°12'2 1.2
2017-Sep-27 13:56N 42°49' E 010°09'2 5.6
2017-Sep-27 13:31N 42°48' E 010°12'0 0.0
2017-Sep-27 13:00N 42°48' E 010°12'0 0.0
2017-Sep-27 12:31N 42°48' E 010°12'0 0.0
2017-Sep-27 12:01N 42°48' E 010°12'0 0.0
2017-Sep-27 11:30N 42°48' E 010°12'0 0.0
2017-Sep-27 11:00N 42°48' E 010°12'0 0.0
2017-Sep-27 10:29N 42°48' E 010°12'0 0.0
2017-Sep-27 10:00N 42°48' E 010°12'0 0.1
2017-Sep-27 07:36N 42°49' E 010°12'0 1.1
2017-Sep-27 07:26N 42°49' E 010°12'0 0.0
2017-Sep-27 07:00N 42°49' E 010°12'0 0.0
2017-Sep-27 06:29N 42°49' E 010°12'0 0.0
2017-Sep-27 06:00N 42°49' E 010°12'0 0.0
2017-Sep-27 05:30N 42°49' E 010°12'0 0.0
2017-Sep-27 05:00N 42°49' E 010°12'0 0.0
2017-Sep-27 04:31N 42°49' E 010°12'0 0.0
2017-Sep-27 03:59N 42°49' E 010°12'0 0.0
2017-Sep-27 03:31N 42°49' E 010°12'0 0.0
2017-Sep-27 03:01N 42°49' E 010°12'0 0.0
2017-Sep-27 02:30N 42°49' E 010°12'0 0.0
2017-Sep-27 02:01N 42°49' E 010°12'0 0.0
2017-Sep-27 01:30N 42°49' E 010°12'0 0.0
2017-Sep-27 01:01N 42°49' E 010°12'0 0.0
2017-Sep-27 00:31N 42°49' E 010°12'0 0.0
2017-Sep-27 00:00N 42°49' E 010°12'0 0.0
2017-Sep-26 23:31N 42°49' E 010°12'0 0.0
2017-Sep-26 23:00N 42°49' E 010°12'0 0.0
2017-Sep-26 22:31N 42°49' E 010°12'0 0.0
2017-Sep-26 22:00N 42°49' E 010°12'0 0.0
2017-Sep-26 21:28N 42°49' E 010°12'0 0.0
2017-Sep-26 21:01N 42°49' E 010°12'0 0.0
2017-Sep-26 20:27N 42°49' E 010°12'0 0.0
2017-Sep-26 20:00N 42°49' E 010°12'0 0.0
2017-Sep-26 19:30N 42°49' E 010°12'0 0.0
2017-Sep-26 18:48N 42°49' E 010°12'0 0.0
2017-Sep-26 17:32N 42°49' E 010°12'0 0.0
2017-Sep-26 17:28N 42°49' E 010°12'0 0.0
2017-Sep-26 16:12N 42°49' E 010°12'0 0.8
2017-Sep-26 16:01N 42°48' E 010°12'1 0.7
2017-Sep-26 13:48N 42°49' E 010°10'1 4.8
2017-Sep-26 13:30N 42°48' E 010°12'0 0.0
2017-Sep-26 12:56N 42°48' E 010°12'0 0.3
2017-Sep-26 12:23N 42°49' E 010°12'0 0.0
2017-Sep-26 11:59N 42°49' E 010°12'0 0.0
2017-Sep-26 11:28N 42°49' E 010°12'0 0.0
2017-Sep-26 10:58N 42°49' E 010°12'0 0.0
2017-Sep-26 10:22N 42°49' E 010°12'0 0.0
2017-Sep-26 09:56N 42°49' E 010°12'0 0.0
2017-Sep-26 09:15N 42°49' E 010°12'0 0.0
2017-Sep-26 08:53N 42°49' E 010°12'0 0.0
2017-Sep-26 08:29N 42°49' E 010°12'0 0.0
2017-Sep-26 07:57N 42°49' E 010°12'0 0.0
2017-Sep-26 07:28N 42°49' E 010°12'0 0.0
2017-Sep-26 07:01N 42°49' E 010°12'0 0.0
2017-Sep-26 06:30N 42°49' E 010°12'0 0.0
2017-Sep-26 06:00N 42°49' E 010°12'0 0.0
2017-Sep-26 05:28N 42°49' E 010°12'0 0.0
2017-Sep-26 05:00N 42°49' E 010°12'0 0.0
2017-Sep-26 04:30N 42°49' E 010°12'0 0.0
2017-Sep-26 04:00N 42°49' E 010°12'0 0.0
2017-Sep-26 03:31N 42°49' E 010°12'0 0.0
2017-Sep-26 03:00N 42°49' E 010°12'0 0.0
2017-Sep-26 02:31N 42°49' E 010°12'0 0.0
2017-Sep-26 02:00N 42°49' E 010°12'0 0.0
2017-Sep-26 01:30N 42°49' E 010°12'0 0.0
2017-Sep-26 01:00N 42°49' E 010°12'0 0.0
2017-Sep-26 00:31N 42°49' E 010°12'0 0.0
2017-Sep-26 00:00N 42°49' E 010°12'0 0.0
2017-Sep-25 23:30N 42°49' E 010°12'0 0.0
2017-Sep-25 22:57N 42°49' E 010°12'0 0.0
2017-Sep-25 22:30N 42°49' E 010°12'0 0.0
2017-Sep-25 22:01N 42°49' E 010°12'0 0.0
2017-Sep-25 21:30N 42°49' E 010°12'0 0.0
2017-Sep-25 20:57N 42°49' E 010°12'0 0.0
2017-Sep-25 20:31N 42°49' E 010°12'0 0.0
2017-Sep-25 20:01N 42°49' E 010°12'0 0.0
2017-Sep-25 19:30N 42°49' E 010°12'0 0.0
2017-Sep-25 19:00N 42°49' E 010°12'0 0.0
2017-Sep-25 18:31N 42°49' E 010°12'0 0.0
2017-Sep-25 18:00N 42°49' E 010°12'0 0.0
2017-Sep-25 17:31N 42°49' E 010°12'0 0.0
2017-Sep-25 17:00N 42°49' E 010°12'0 0.0
2017-Sep-25 16:31N 42°49' E 010°12'0 0.3
2017-Sep-25 15:59N 42°48' E 010°12'3 6.8
2017-Sep-25 15:30N 42°49' E 010°08'3 2.4
2017-Sep-25 14:26N 42°46' E 010°06'3 6.2
2017-Sep-25 14:00N 42°49' E 010°08'3 6.1
2017-Sep-25 13:30N 42°48' E 010°12'0 0.0
2017-Sep-25 13:01N 42°48' E 010°12'0 0.3
2017-Sep-25 12:30N 42°49' E 010°12'0 0.0
2017-Sep-25 12:00N 42°49' E 010°12'0 0.0
2017-Sep-25 11:30N 42°49' E 010°12'0 0.0
2017-Sep-25 11:01N 42°49' E 010°12'0 0.0
2017-Sep-25 04:25N 42°49' E 010°12'0 0.0
2017-Sep-25 04:00N 42°49' E 010°12'0 0.0
2017-Sep-25 01:34N 42°49' E 010°12'0 0.0
2017-Sep-25 01:28N 42°49' E 010°12'0 0.0
2017-Sep-25 00:47N 42°49' E 010°12'0 0.0
2017-Sep-24 23:06N 42°49' E 010°12'0 0.0
2017-Sep-24 21:04N 42°49' E 010°12'0 0.0
2017-Sep-24 19:38N 42°49' E 010°12'0 0.0
2017-Sep-24 19:30N 42°49' E 010°12'0 0.0
2017-Sep-24 19:00N 42°49' E 010°12'0 0.0
2017-Sep-24 18:14N 42°49' E 010°12'0 0.0
2017-Sep-24 18:01N 42°49' E 010°12'0 0.0
2017-Sep-24 17:29N 42°49' E 010°12'0 0.0
2017-Sep-24 16:51N 42°49' E 010°12'0 0.0
2017-Sep-24 16:30N 42°49' E 010°12'0 0.4
2017-Sep-24 16:01N 42°48' E 010°12'3 1.6
2017-Sep-24 14:03N 42°49' E 010°08'1 8.5
2017-Sep-24 13:59N 42°49' E 010°09'2 5.3
2017-Sep-24 13:30N 42°48' E 010°12'0 0.0
2017-Sep-24 12:56N 42°48' E 010°12'0 0.0
2017-Sep-24 12:27N 42°48' E 010°12'0 0.0
2017-Sep-24 08:47N 42°49' E 010°12'0 0.0
2017-Sep-24 08:14N 42°49' E 010°12'0 0.0
2017-Sep-24 07:59N 42°49' E 010°12'0 0.0
2017-Sep-24 07:28N 42°49' E 010°12'0 0.0
2017-Sep-24 06:57N 42°49' E 010°12'0 0.0
2017-Sep-24 06:29N 42°49' E 010°12'0 0.0
2017-Sep-24 05:59N 42°49' E 010°12'0 0.0
2017-Sep-24 05:11N 42°49' E 010°12'0 0.0
2017-Sep-24 04:54N 42°49' E 010°12'0 0.0
2017-Sep-24 04:29N 42°49' E 010°12'0 0.0
2017-Sep-24 03:24N 42°49' E 010°12'0 0.0
2017-Sep-24 02:00N 42°49' E 010°12'0 0.0
2017-Sep-24 01:28N 42°49' E 010°12'0 0.0
2017-Sep-24 00:57N 42°49' E 010°12'0 0.0
2017-Sep-24 00:30N 42°49' E 010°12'0 0.0
2017-Sep-23 23:59N 42°49' E 010°12'0 0.0
2017-Sep-23 23:30N 42°49' E 010°12'0 0.0
2017-Sep-23 22:59N 42°49' E 010°12'0 0.0
2017-Sep-23 22:30N 42°49' E 010°12'0 0.0
2017-Sep-23 22:00N 42°49' E 010°12'0 0.0
2017-Sep-23 21:29N 42°49' E 010°12'0 0.0
2017-Sep-23 21:00N 42°49' E 010°12'0 0.0
2017-Sep-23 20:30N 42°49' E 010°12'0 0.0
2017-Sep-23 20:00N 42°49' E 010°12'0 0.0
2017-Sep-22 02:00N 42°49' E 010°12'0 0.0
2017-Sep-22 01:30N 42°49' E 010°12'0 0.0
2017-Sep-22 00:53N 42°49' E 010°12'0 0.0
2017-Sep-22 00:20N 42°49' E 010°12'0 0.0
2017-Sep-21 23:59N 42°49' E 010°12'0 0.0
2017-Sep-21 23:12N 42°49' E 010°12'0 0.0
2017-Sep-21 22:58N 42°49' E 010°12'0 0.0
2017-Sep-21 22:29N 42°49' E 010°12'0 0.0
2017-Sep-21 21:55N 42°49' E 010°12'0 0.0
2017-Sep-21 21:24N 42°49' E 010°12'0 0.0
2017-Sep-21 20:19N 42°49' E 010°12'0 0.0
2017-Sep-21 19:54N 42°49' E 010°12'0 0.0
2017-Sep-21 19:29N 42°49' E 010°12'0 0.0
2017-Sep-21 18:48N 42°49' E 010°12'0 0.0
2017-Sep-21 18:30N 42°49' E 010°12'0 0.0
2017-Sep-21 17:42N 42°49' E 010°12'0 0.0
2017-Sep-21 17:29N 42°49' E 010°12'0 0.0
2017-Sep-21 17:00N 42°49' E 010°12'0 0.0
2017-Sep-21 16:28N 42°49' E 010°12'0 0.3
2017-Sep-21 16:00N 42°49' E 010°12'0 0.1
2017-Sep-21 12:50N 42°48' E 010°12'0 0.0
2017-Sep-21 09:27N 42°49' E 010°12'0 0.0
2017-Sep-21 08:44N 42°49' E 010°12'0 0.0
2017-Sep-21 08:20N 42°49' E 010°12'0 0.0
2017-Sep-21 07:57N 42°49' E 010°12'0 0.0
2017-Sep-21 07:30N 42°49' E 010°12'0 0.0
2017-Sep-21 06:06N 42°49' E 010°12'0 0.0
2017-Sep-21 05:39N 42°49' E 010°12'0 0.0
2017-Sep-21 05:26N 42°49' E 010°12'0 0.0
2017-Sep-21 04:58N 42°49' E 010°12'0 0.0
2017-Sep-21 04:27N 42°49' E 010°12'0 0.0
2017-Sep-21 04:01N 42°49' E 010°12'0 0.0
2017-Sep-21 03:30N 42°49' E 010°12'0 0.0
2017-Sep-21 02:50N 42°49' E 010°12'0 0.0
2017-Sep-21 02:29N 42°49' E 010°12'0 0.0
2017-Sep-21 01:22N 42°49' E 010°12'0 0.0
2017-Sep-21 00:59N 42°49' E 010°12'0 0.0
2017-Sep-21 00:29N 42°49' E 010°12'0 0.0
2017-Sep-20 22:20N 42°49' E 010°12'0 0.0
2017-Sep-20 22:00N 42°49' E 010°12'0 0.0
2017-Sep-20 21:31N 42°49' E 010°12'0 0.0
2017-Sep-20 20:24N 42°49' E 010°12'0 0.0
2017-Sep-20 17:37N 42°49' E 010°12'0 0.0
2017-Sep-20 17:30N 42°49' E 010°12'0 0.0
2017-Sep-20 16:58N 42°49' E 010°12'0 0.0
2017-Sep-20 16:31N 42°49' E 010°12'1 2.3
2017-Sep-20 15:53N 42°49' E 010°10'1 0.6
2017-Sep-20 13:59N 42°49' E 010°08'3 5.5
2017-Sep-20 13:30N 42°48' E 010°12'0 0.0
2017-Sep-20 13:00N 42°48' E 010°12'  

Dump ship's entire track history